Terminal Aerodrome Forecast
Issued by NWS Charleston, WV

Current Version | Previous Version | Text Only | Print | Product List | Glossary Off
Versions: 1 2 3 4 5 6 7 8 9 10 11 12 13 14 15 16 17 18 19 20 21 22 23

000
FTUS41 KRLX 290246 AAA
TAFPKB
TAF AMD
KPKB 290246Z 2903/2924 00000KT P6SM SCT250
     FM290700 00000KT 4SM BR SCT250
     FM291300 VRB03KT P6SM BKN250
     FM291600 VRB04KT P6SM SCT040
     FM292000 21004KT P6SM VCTS SCT050CB=

USA.gov is the U.S. government's official web portal to all federal, state and local government web resources and services.